createdAt,value
2022-08-11T00:02:12.719Z,78.39
2022-08-11T00:07:20.177Z,78.98
2022-08-11T00:12:23.720Z,79.86
2022-08-11T00:17:33.990Z,80.65
2022-08-11T00:22:41.932Z,80.87
2022-08-11T00:27:45.622Z,81.36
2022-08-11T00:32:59.055Z,80.91
2022-08-11T00:38:03.869Z,81.70
2022-08-11T00:43:19.883Z,82.34
2022-08-11T00:48:30.605Z,83.10
2022-08-11T00:53:45.747Z,83.22
2022-08-11T00:59:35.089Z,84.36
2022-08-11T01:05:15.327Z,84.24
2022-08-11T01:10:48.666Z,84.22
2022-08-11T01:16:34.425Z,84.81
2022-08-11T01:22:34.334Z,85.68
2022-08-11T01:28:23.125Z,85.36
2022-08-11T01:34:08.346Z,85.58
2022-08-11T01:39:50.665Z,85.84
2022-08-11T01:45:22.875Z,86.77
2022-08-11T01:50:47.584Z,86.64
2022-08-11T01:56:02.331Z,86.57
2022-08-11T02:01:17.444Z,88.37
2022-08-11T02:06:50.916Z,88.57
2022-08-11T02:12:02.764Z,90.99
2022-08-11T02:17:15.391Z,91.83
2022-08-11T02:22:48.800Z,93.91
2022-08-11T02:28:02.309Z,94.78
2022-08-11T02:33:27.421Z,94.98
2022-08-11T02:38:36.075Z,96.69
2022-08-11T02:43:51.088Z,100.00
2022-08-11T02:49:30.278Z,99.33
2022-08-11T02:54:42.910Z,100.00
2022-08-11T02:59:54.604Z,100.00
2022-08-11T03:05:13.935Z,100.00
2022-08-11T03:16:46.381Z,100.00
2022-08-11T03:22:09.652Z,100.00
2022-08-11T03:27:25.910Z,100.00
2022-08-11T03:32:35.094Z,100.00
2022-08-11T03:37:52.147Z,100.00
2022-08-11T03:43:03.465Z,100.00
2022-08-11T03:48:19.972Z,100.00
2022-08-11T03:53:45.514Z,100.00
2022-08-11T03:59:18.468Z,100.00
2022-08-11T04:05:00.456Z,100.00
2022-08-11T04:10:50.834Z,99.88
2022-08-11T04:16:17.413Z,99.83
2022-08-11T04:21:57.391Z,99.12
2022-08-11T04:27:36.872Z,98.63
2022-08-11T04:33:11.611Z,99.30
2022-08-11T04:38:59.801Z,98.95
2022-08-11T04:44:33.928Z,98.25
2022-08-11T04:50:19.573Z,97.90
2022-08-11T04:56:07.998Z,98.20
2022-08-11T05:01:44.685Z,96.74
2022-08-11T05:07:35.825Z,95.29
2022-08-11T05:12:46.081Z,94.08
2022-08-11T05:18:13.596Z,93.75
2022-08-11T05:23:38.691Z,92.95
2022-08-11T05:29:20.261Z,92.35
2022-08-11T05:34:46.546Z,91.28
2022-08-11T05:40:12.030Z,91.23
2022-08-11T05:45:58.137Z,89.79
2022-08-11T05:51:30.004Z,87.57
2022-08-11T05:56:35.719Z,86.85
2022-08-11T06:01:39.430Z,84.41
2022-08-11T06:06:51.274Z,67.54
2022-08-11T06:11:57.630Z,54.06
2022-08-11T06:17:04.158Z,44.70
2022-08-11T06:22:12.525Z,41.48
2022-08-11T06:27:21.455Z,39.25
2022-08-11T06:32:27.184Z,36.74
2022-08-11T06:37:48.726Z,37.05
2022-08-11T06:42:56.319Z,35.27
2022-08-11T06:48:03.048Z,32.61
2022-08-11T06:53:12.348Z,31.49
2022-08-11T06:58:36.722Z,27.93
2022-08-11T07:03:44.511Z,28.60
2022-08-11T07:09:27.097Z,31.18
2022-08-11T07:14:49.939Z,33.86
2022-08-11T07:20:14.270Z,37.92
2022-08-11T07:25:37.260Z,35.41
2022-08-11T07:30:43.443Z,32.01
2022-08-11T07:35:51.194Z,33.49
2022-08-11T07:40:59.478Z,33.61
2022-08-11T07:46:23.554Z,30.54
2022-08-11T07:51:44.873Z,27.00
2022-08-11T07:57:07.535Z,25.23
2022-08-11T08:02:36.612Z,24.46
2022-08-11T08:08:06.595Z,25.71
2022-08-11T08:13:32.858Z,26.96
2022-08-11T08:18:37.729Z,29.80
2022-08-11T08:23:43.501Z,29.47
2022-08-11T08:28:48.331Z,32.80
2022-08-11T08:33:53.188Z,33.80
2022-08-11T08:38:56.794Z,34.44
2022-08-11T08:44:37.354Z,35.32
2022-08-11T08:49:35.182Z,32.63
2022-08-11T08:54:46.999Z,32.25
2022-08-11T08:59:53.680Z,32.83
2022-08-11T09:04:58.761Z,32.96
2022-08-11T09:10:02.925Z,32.31
2022-08-11T09:15:10.698Z,31.54
2022-08-11T09:20:16.552Z,32.06
2022-08-11T09:25:39.022Z,32.91
2022-08-11T09:30:44.721Z,33.74
2022-08-11T09:35:50.801Z,33.16
2022-08-11T09:40:57.064Z,34.55
2022-08-11T09:46:02.735Z,32.96
2022-08-11T09:51:08.478Z,33.34
2022-08-11T09:56:31.910Z,35.32
2022-08-11T10:01:41.808Z,35.62
2022-08-11T10:07:05.610Z,33.07
2022-08-11T10:12:13.232Z,33.65
2022-08-11T10:17:21.752Z,34.96
2022-08-11T10:22:43.504Z,35.34
2022-08-11T10:28:30.521Z,33.55
2022-08-11T10:33:36.997Z,33.36
2022-08-11T10:38:43.555Z,34.31
2022-08-11T10:44:02.517Z,34.74
2022-08-11T10:49:09.456Z,34.54
2022-08-11T10:54:31.391Z,33.38
2022-08-11T10:59:35.606Z,34.16
2022-08-11T11:04:53.749Z,32.63
2022-08-11T11:10:00.009Z,30.66
2022-08-11T11:15:23.105Z,31.13
2022-08-11T11:20:36.357Z,29.34
2022-08-11T11:26:27.088Z,29.78
2022-08-11T11:31:45.693Z,29.80
2022-08-11T11:36:52.817Z,29.26
2022-08-11T11:41:59.056Z,27.37
2022-08-11T11:47:03.605Z,27.72
2022-08-11T11:52:09.613Z,28.59
2022-08-11T11:57:33.960Z,31.08
2022-08-11T12:02:37.844Z,30.26
2022-08-11T12:08:07.079Z,27.89
2022-08-11T12:13:36.014Z,27.79
2022-08-11T12:18:41.069Z,30.32
2022-08-11T12:24:08.470Z,33.17
2022-08-11T12:29:13.530Z,34.06
2022-08-11T12:34:18.596Z,35.45
2022-08-11T12:40:16.342Z,33.01
2022-08-11T12:45:28.968Z,30.45
2022-08-11T12:50:51.767Z,29.02
2022-08-11T12:56:21.308Z,29.76
2022-08-11T13:01:42.128Z,30.43
2022-08-11T13:06:46.226Z,30.18
2022-08-11T13:12:08.911Z,28.22
2022-08-11T13:17:43.544Z,28.99
2022-08-11T13:22:47.514Z,29.28
2022-08-11T13:27:54.208Z,25.74
2022-08-11T13:32:58.276Z,24.00
2022-08-11T13:38:19.381Z,26.88
2022-08-11T13:43:25.988Z,30.94
2022-08-11T13:48:29.576Z,30.60
2022-08-11T13:53:34.297Z,23.04
2022-08-11T13:58:40.104Z,19.01
2022-08-11T14:04:30.204Z,23.40
2022-08-11T14:09:11.329Z,41.79
2022-08-11T14:14:22.521Z,54.43
2022-08-11T14:19:28.006Z,62.78
2022-08-11T14:24:33.259Z,67.06
2022-08-11T14:29:49.113Z,76.61
2022-08-11T14:34:53.174Z,85.34
2022-08-11T14:40:03.801Z,88.79
2022-08-11T14:45:57.641Z,87.16
2022-08-11T14:50:54.145Z,89.78
2022-08-11T14:56:15.281Z,86.39
2022-08-11T15:01:37.707Z,83.96
2022-08-11T15:06:42.685Z,80.02
2022-08-11T15:12:03.745Z,82.09
2022-08-11T15:17:10.685Z,75.84
2022-08-11T15:22:32.327Z,75.22
2022-08-11T15:27:55.006Z,71.34
2022-08-11T15:33:17.974Z,71.70
2022-08-11T15:38:25.396Z,73.79
2022-08-11T15:43:51.038Z,73.83
2022-08-11T15:49:00.380Z,72.60
2022-08-11T15:54:09.509Z,75.39
2022-08-11T15:59:42.149Z,71.81
2022-08-11T16:04:49.308Z,65.20
2022-08-11T16:10:00.241Z,63.51
2022-08-11T16:15:24.068Z,65.32
2022-08-11T16:20:30.424Z,67.18
2022-08-11T16:26:39.958Z,66.39
2022-08-11T16:30:59.996Z,65.90
2022-08-11T16:36:39.653Z,68.77
2022-08-11T16:42:01.504Z,69.58
2022-08-11T16:47:11.793Z,69.35
2022-08-11T16:52:17.112Z,69.51
2022-08-11T16:57:42.605Z,69.74
2022-08-11T17:03:07.935Z,71.01
2022-08-11T17:08:31.085Z,71.63
2022-08-11T17:13:44.604Z,71.96
2022-08-11T17:18:54.110Z,72.68
2022-08-11T17:24:07.928Z,73.79
2022-08-11T17:29:13.157Z,74.73
2022-08-11T17:34:34.627Z,78.25
2022-08-11T17:39:41.049Z,80.92
2022-08-11T17:45:04.106Z,84.00
2022-08-11T17:50:16.775Z,87.88
2022-08-11T17:55:51.902Z,90.76
2022-08-11T18:01:00.560Z,92.01
2022-08-11T18:06:15.402Z,94.04
2022-08-11T18:12:07.387Z,94.46
2022-08-11T18:17:21.652Z,97.11
2022-08-11T18:22:48.435Z,97.07
2022-08-11T18:28:13.681Z,97.57
2022-08-11T18:33:56.778Z,99.98
2022-08-11T18:39:18.437Z,99.97
2022-08-11T18:44:48.018Z,100.00
2022-08-11T18:50:13.870Z,100.00
2022-08-11T18:55:39.446Z,100.00
2022-08-11T19:01:04.652Z,100.00
2022-08-11T19:06:38.233Z,100.00
2022-08-11T19:12:03.385Z,100.00
2022-08-11T19:17:44.465Z,99.82
2022-08-11T19:23:07.871Z,99.08
2022-08-11T19:28:29.476Z,98.90
2022-08-11T19:34:09.707Z,99.61
2022-08-11T19:39:32.818Z,98.90
2022-08-11T19:44:54.740Z,99.33
2022-08-11T19:50:24.434Z,98.89
2022-08-11T19:55:46.353Z,98.95
2022-08-11T20:01:08.217Z,99.12
2022-08-11T20:06:33.565Z,98.99
2022-08-11T20:11:59.676Z,98.99
2022-08-11T20:17:22.112Z,98.58
2022-08-11T20:22:46.849Z,98.79
2022-08-11T20:28:09.250Z,98.57
2022-08-11T20:33:30.430Z,98.57
2022-08-11T20:38:55.259Z,100.00
2022-08-11T20:44:18.697Z,100.00
2022-08-11T20:49:51.393Z,100.00
2022-08-11T20:55:25.853Z,100.00
2022-08-11T21:01:00.554Z,100.00
2022-08-11T21:06:31.126Z,100.00
2022-08-11T21:11:55.732Z,100.00
2022-08-11T21:17:27.392Z,100.00
2022-08-11T21:22:59.216Z,100.00
2022-08-11T21:28:30.666Z,100.00
2022-08-11T21:33:52.276Z,100.00
2022-08-11T21:39:13.646Z,100.00
2022-08-11T21:44:37.297Z,100.00
2022-08-11T21:50:02.759Z,100.00
2022-08-11T21:55:24.435Z,100.00
2022-08-11T22:00:47.642Z,100.00
2022-08-11T22:06:09.646Z,100.00
2022-08-11T22:11:32.404Z,100.00
2022-08-11T22:16:55.617Z,100.00
2022-08-11T22:22:17.963Z,100.00
2022-08-11T22:27:39.514Z,100.00
2022-08-11T22:33:02.683Z,100.00
2022-08-11T22:38:24.636Z,100.00
2022-08-11T22:43:46.433Z,100.00
2022-08-11T22:49:10.079Z,100.00
2022-08-11T22:54:32.745Z,100.00
2022-08-11T22:59:55.316Z,100.00
2022-08-11T23:05:18.755Z,100.00
2022-08-11T23:10:40.437Z,100.00
2022-08-11T23:16:01.726Z,100.00
2022-08-11T23:21:24.755Z,100.00
2022-08-11T23:26:48.103Z,100.00
2022-08-11T23:32:10.239Z,100.00
2022-08-11T23:37:32.411Z,100.00
2022-08-11T23:42:56.842Z,100.00
2022-08-11T23:48:19.058Z,100.00
2022-08-11T23:53:42.087Z,100.00
2022-08-11T23:59:04.162Z,100.00
